ADDS METAR Data INFO
IDs: Format: Raw Decoded Include TAF

Data at: 1041 UTC 19 Oct 2017

KTBR 191035Z AUTO 00000KT 10SM CLR 11/07 A3024 RMK AO2 T01100073
KTBR 191015Z AUTO 00000KT 10SM CLR 11/08 A3024 RMK AO2 T01120075
KTBR 190955Z AUTO 01003KT 10SM CLR 12/08 A3023 RMK AO2 T01170076
KTBR 190935Z AUTO 00000KT 10SM CLR 12/08 A3023 RMK AO2 T01170077
KTBR 190915Z AUTO 00000KT 10SM CLR 11/08 A3022 RMK AO2 T01130080
KTBR 190855Z AUTO 00000KT 10SM CLR 11/08 A3022 RMK AO2 T01060081
KTBR 190835Z AUTO 00000KT 10SM CLR 11/08 A3022 RMK AO2 T01100080
KTBR 190815Z AUTO 00000KT 10SM CLR 12/08 A3022 RMK AO2 T01170079
KTBR 190755Z AUTO 00000KT 10SM CLR 12/08 A3023 RMK AO2 T01170080
KTBR 190735Z AUTO 00000KT 10SM CLR 11/08 A3023 RMK AO2 T01140079
KTBR 190715Z AUTO 00000KT 10SM CLR 12/08 A3023 RMK AO2 T01150083
KTBR 190655Z AUTO 00000KT 10SM CLR 12/09 A3024 RMK AO2 T01160088
KTBR 190635Z AUTO 00000KT 10SM CLR 12/09 A3024 RMK AO2 T01150087
KTBR 190615Z AUTO 00000KT 10SM CLR 12/09 A3024 RMK AO2 T01200086
KTBR 190555Z AUTO 00000KT 10SM CLR 13/09 A3025 RMK AO2 T01250086 10178 20122 402450078
KTBR 190535Z AUTO 00000KT 10SM CLR 12/09 A3025 RMK AO2 T01240086
KTBR 190515Z AUTO 00000KT 10SM CLR 14/09 A3026 RMK AO2 T01350087
KTBR 190455Z AUTO 00000KT 10SM CLR 13/09 A3026 RMK AO2 T01310091
KTBR 190435Z AUTO 00000KT 10SM CLR 14/10 A3026 RMK AO2 T01350095
KTBR 190415Z AUTO 00000KT 10SM CLR 14/09 A3028 RMK AO2 T01440093
KTBR 190355Z AUTO 00000KT 10SM CLR 15/09 A3028 RMK AO2 T01490094
KTBR 190335Z AUTO 00000KT 10SM CLR 14/10 A3028 RMK AO2 T01440097
KTBR 190315Z AUTO 00000KT 10SM CLR 14/10 A3028 RMK AO2 T01440102
KTBR 190255Z AUTO 00000KT 10SM CLR 14/10 A3029 RMK AO2 T01440103
KTBR 190235Z AUTO 00000KT 10SM CLR 15/11 A3029 RMK AO2 T01470105
KTBR 190215Z AUTO 00000KT 10SM CLR 16/10 A3028 RMK AO2 T01570103
KTBR 190155Z AUTO 00000KT 10SM CLR 16/11 A3028 RMK AO2 T01620105
KTBR 190135Z AUTO 03003KT 10SM CLR 17/10 A3028 RMK AO2 T01730103
KTBR 190115Z AUTO 03003KT 10SM CLR 17/11 A3028 RMK AO2 T01740109
KTBR 190055Z AUTO 02003KT 10SM CLR 18/11 A3027 RMK AO2 T01750112
KTBR 190035Z AUTO 00000KT 10SM CLR 18/11 A3027 RMK AO2 T01770112
KTBR 190015Z AUTO 00000KT 10SM CLR 18/12 A3027 RMK AO2 T01750116
KTBR 182355Z AUTO 00000KT 10SM CLR 17/12 A3026 RMK AO2 T01700117 10245 20170
KTBR 182335Z AUTO 00000KT 10SM CLR 17/12 A3025 RMK AO2 T01740117
KTBR 182315Z AUTO 00000KT 10SM CLR 20/11 A3025 RMK AO2 T01980113
KTBR 182255Z AUTO 00000KT 10SM CLR 20/11 A3024 RMK AO2 T02040114
KTBR 182235Z AUTO 00000KT 10SM CLR 22/11 A3024 RMK AO2 T02180108
KTBR 182215Z AUTO 07004KT 10SM CLR 23/10 A3024 RMK AO2 T02270100
KTBR 182155Z AUTO 08003KT 10SM CLR 23/10 A3023 RMK AO2 T02310097
KTBR 182135Z AUTO 06003KT 10SM CLR 24/10 A3023 RMK AO2 T02350096
KTBR 182115Z AUTO 05004KT 10SM CLR 24/09 A3023 RMK AO2 T02380092
KTBR 182055Z AUTO 06003KT 10SM CLR 24/09 A3023 RMK AO2 T02400093
KTBR 182035Z AUTO 10005KT 10SM CLR 24/09 A3023 RMK AO2 T02430090
KTBR 182015Z AUTO 04006KT 10SM CLR 24/09 A3023 RMK AO2 T02430090
KTBR 181955Z AUTO 05005KT 10SM CLR 25/09 A3023 RMK AO2 T02450085
KTBR 181935Z AUTO 08003KT 10SM CLR 24/08 A3024 RMK AO2 T02420082
KTBR 181915Z AUTO 36004KT 10SM CLR 23/08 A3024 RMK AO2 T02340080
KTBR 181855Z AUTO 06007KT 10SM CLR 24/09 A3025 RMK AO2 T02360085
KTBR 181835Z AUTO 07003KT 10SM CLR 23/08 A3025 RMK AO2 T02300084
KTBR 181815Z AUTO 02006KT 10SM CLR 23/08 A3026 RMK AO2 T02310083
KTBR 181755Z AUTO 06004KT 10SM CLR 23/08 A3027 RMK AO2 T02260081 10226 20091
KTBR 181735Z AUTO 04003KT 10SM CLR 22/08 A3028 RMK AO2 T02220079
KTBR 181715Z AUTO 07006KT 010V090 10SM CLR 22/08 A3029 RMK AO2 T02220076
KTBR 181655Z AUTO 04004KT 10SM CLR 21/08 A3029 RMK AO2 T02120075
KTBR 181635Z AUTO 03006KT 10SM CLR 21/07 A3030 RMK AO2 T02070067
KTBR 181615Z AUTO 01007KT 360V060 10SM CLR 20/06 A3031 RMK AO2 T02010064
KTBR 181555Z AUTO 02008KT 10SM CLR 20/06 A3032 RMK AO2 T01950061
KTBR 181535Z AUTO 04006KT 10SM CLR 18/06 A3033 RMK AO2 T01840058
KTBR 181515Z AUTO 03004KT 10SM CLR 18/06 A3033 RMK AO2 T01800059
KTBR 181455Z AUTO 05004KT 10SM CLR 18/06 A3033 RMK AO2 T01770060
KTBR 181435Z AUTO 05008KT 10SM CLR 17/05 A3033 RMK AO2 T01660053
KTBR 181415Z AUTO 04006KT 10SM CLR 16/06 A3033 RMK AO2 T01610056
KTBR 181355Z AUTO 04006KT 10SM CLR 15/06 A3032 RMK AO2 T01520056
KTBR 181335Z AUTO 06005KT 10SM CLR 14/06 A3031 RMK AO2 T01410056
KTBR 181315Z AUTO 05005KT 10SM CLR 13/06 A3031 RMK AO2 T01310056
KTBR 181255Z AUTO 00000KT 10SM CLR 12/06 A3030 RMK AO2 T01200059
KTBR 181235Z AUTO 03003KT 10SM CLR 11/06 A3030 RMK AO2 T01090055
KTBR 181215Z AUTO 00000KT 10SM CLR 10/06 A3029 RMK AO2 T00970056
KTBR 181155Z AUTO 00000KT 10SM CLR 09/05 A3029 RMK AO2 T00910053 10108 20078
KTBR 181135Z AUTO 01004KT 10SM CLR 08/05 A3028 RMK AO2 T00810050
KTBR 181115Z AUTO 00000KT 10SM CLR 08/05 A3028 RMK AO2 T00800051
KTBR 181055Z AUTO 00000KT 10SM CLR 08/05 A3028 RMK AO2 T00800052
KTBR 181035Z AUTO 00000KT 10SM CLR 08/05 A3028 RMK AO2 T00810052
KTBR 181015Z AUTO 00000KT 10SM CLR 08/05 A3028 RMK AO2 T00830051
KTBR 180955Z AUTO 00000KT 10SM CLR 10/05 A3027 RMK AO2 T00950051
KTBR 180935Z AUTO 00000KT 10SM CLR 10/05 A3026 RMK AO2 T00960053
KTBR 180915Z AUTO 04003KT 10SM CLR 10/05 A3026 RMK AO2 T00950054
KTBR 180855Z AUTO 02004KT 10SM CLR 09/05 A3026 RMK AO2 T00910054
KTBR 180835Z AUTO 02004KT 10SM CLR 09/05 A3026 RMK AO2 T00920052
KTBR 180815Z AUTO 01004KT 10SM CLR 09/05 A3026 RMK AO2 T00870053
KTBR 180755Z AUTO 02003KT 10SM CLR 09/05 A3026 RMK AO2 T00890053
KTBR 180735Z AUTO 01003KT 10SM CLR 09/06 A3026 RMK AO2 T00860055
KTBR 180715Z AUTO 00000KT 10SM CLR 09/05 A3026 RMK AO2 T00940053
KTBR 180655Z AUTO 00000KT 10SM CLR 10/05 A3026 RMK AO2 LTG DSNT SW T01000054
KTBR 180635Z AUTO 00000KT 10SM CLR 11/05 A3026 RMK AO2 T01080053
KTBR 180615Z AUTO 00000KT 10SM CLR 11/06 A3026 RMK AO2 T01060055
KTBR 180555Z AUTO 00000KT 10SM CLR 09/06 A3026 RMK AO2 T00920057 10141 20085 402190085
KTBR 180535Z AUTO 02003KT 10SM CLR 09/06 A3026 RMK AO2 T00880060
KTBR 180515Z AUTO 00000KT 10SM CLR 09/06 A3027 RMK AO2 T00870058
KTBR 180455Z AUTO 00000KT 10SM CLR 09/06 A3027 RMK AO2 T00910062
KTBR 180435Z AUTO 00000KT 10SM CLR 09/06 A3027 RMK AO2 T00880061
KTBR 180415Z AUTO 00000KT 10SM CLR 10/06 A3027 RMK AO2 T00950060
KTBR 180355Z AUTO 00000KT 10SM CLR 10/06 A3027 RMK AO2 T00960060
KTBR 180335Z AUTO 00000KT 10SM CLR 10/06 A3028 RMK AO2 T01000060
KTBR 180315Z AUTO 00000KT 10SM CLR 11/06 A3028 RMK AO2 T01060062
KTBR 180255Z AUTO 00000KT 10SM CLR 10/06 A3028 RMK AO2 T01020064
KTBR 180235Z AUTO 00000KT 10SM CLR 10/06 A3028 RMK AO2 T01000063
KTBR 180215Z AUTO 00000KT 10SM CLR 10/06 A3027 RMK AO2 T01040061
KTBR 180155Z AUTO 00000KT 10SM CLR 11/06 A3027 RMK AO2 T01060063
KTBR 180135Z AUTO 00000KT 10SM CLR 10/07 A3026 RMK AO2 T01000070
KTBR 180115Z AUTO 00000KT 10SM CLR 11/06 A3026 RMK AO2 T01110058
KTBR 180055Z AUTO 00000KT 10SM CLR 11/07 A3026 RMK AO2 T01130066
KTBR 180035Z AUTO 00000KT 10SM CLR 12/06 A3025 RMK AO2 T01180059
KTBR 180015Z AUTO 00000KT 10SM CLR 12/06 A3025 RMK AO2 T01160063
KTBR 172355Z AUTO 00000KT 10SM CLR 13/05 A3024 RMK AO2 T01340048 10219 20128
KTBR 172335Z AUTO 00000KT 10SM CLR 15/04 A3024 RMK AO2 T01540040
KTBR 172315Z AUTO 00000KT 10SM CLR 17/03 A3023 RMK AO2 T01660033
KTBR 172255Z AUTO 05003KT 10SM CLR 18/02 A3022 RMK AO2 T01780020